Newton, Kansas
Current Conditions -  °F | °C
As of 12:55 AM on Tuesday 21 Oct 2014 (Local Time) from KEWK Reporting Station
Clear Clear  
Wind Chill: 55°   Ceiling: Unl
Heat Index: 55°   Visibility: 10mi
Dew Point: 41°   Wind: 6mph
Humidity: 58%   Direction: 120°ESE
Pressure: 30.09"   Gusts: NA
Location:  38.05°N, 97.34°W
Report Text: KEWK 210555Z AUTO 12005KT 10SM CLR 13/05 A3009 RMK AO1 10190 20130 57003
Loading
Personal Weather Stations






























Interactive Weather Map
Tropical Storm Tracking
New forecast layout! Learn more

10-Day Weather Forecast

Advertisements
Track Severe Weather on mobile